Time;durP1;ratioP1;P1;durP2;ratioP2;P2;SDS_P1;SDS_P2;PMS_P1;PMS_P2;Temp;Humidity;BMP_temperature;BMP_pressure;BME280_temperature;BME280_humidity;BME280_pressure;Samples;Min_cycle;Max_cycle;Signal;HPM_P1;HPM_P2
2023/03/25 00:01:28;;;;;;;5.10;2.90;;;;;;;;;;80803;255;3011576;-30
2023/03/25 00:04:08;;;;;;;5.00;2.80;;;;;;;;;;80136;255;3030502;-30
2023/03/25 00:06:45;;;;;;;4.60;2.90;;;;;;;;;;80079;255;3031818;-30
2023/03/25 00:09:25;;;;;;;5.00;2.70;;;;;;;;;;80101;255;3028359;-30
2023/03/25 00:12:01;;;;;;;4.50;2.90;;;;;;;;;;80066;255;3027527;-30
2023/03/25 00:14:43;;;;;;;5.10;2.90;;;;;;;;;;80077;255;3030511;-30
2023/03/25 00:17:27;;;;;;;4.80;2.90;;;;;;;;;;80085;255;3031602;-28
2023/03/25 00:20:09;;;;;;;5.30;2.80;;;;;;;;;;80103;255;3028068;-29
2023/03/25 00:22:48;;;;;;;5.00;2.80;;;;;;;;;;80058;255;3027099;-29
2023/03/25 00:25:24;;;;;;;5.40;3.20;;;;;;;;;;80113;255;3031054;-29
2023/03/25 00:28:02;;;;;;;5.00;2.80;;;;;;;;;;80090;255;3031418;-29
2023/03/25 00:30:42;;;;;;;4.60;2.60;;;;;;;;;;80115;255;3028737;-29
2023/03/25 00:33:21;;;;;;;4.80;2.70;;;;;;;;;;80072;255;3027254;-29
2023/03/25 00:35:59;;;;;;;4.80;3.00;;;;;;;;;;80079;255;3030496;-29
2023/03/25 00:38:36;;;;;;;5.70;2.80;;;;;;;;;;80073;255;3031548;-29
2023/03/25 00:41:24;;;;;;;5.60;2.80;;;;;;;;;;80093;255;3028290;-29
2023/03/25 00:44:02;;;;;;;5.10;2.90;;;;;;;;;;80105;255;3035249;-29
2023/03/25 00:46:39;;;;;;;4.70;2.70;;;;;;;;;;80107;255;3031564;-29
2023/03/25 00:49:17;;;;;;;5.50;2.80;;;;;;;;;;80105;255;3031819;-29
2023/03/25 00:51:56;;;;;;;5.00;2.80;;;;;;;;;;80086;255;3029558;-29
2023/03/25 00:54:32;;;;;;;4.80;2.80;;;;;;;;;;80086;255;3026999;-29
2023/03/25 00:57:11;;;;;;;5.20;2.90;;;;;;;;;;80083;255;3031332;-29
2023/03/25 00:59:49;;;;;;;5.10;2.60;;;;;;;;;;80099;255;3031400;-29
2023/03/25 01:02:28;;;;;;;4.80;2.70;;;;;;;;;;80064;255;3028519;-29
2023/03/25 01:05:11;;;;;;;4.70;2.60;;;;;;;;;;80117;255;3027036;-29
2023/03/25 01:07:50;;;;;;;4.70;2.50;;;;;;;;;;80113;255;3031290;-29
2023/03/25 01:10:26;;;;;;;4.90;2.60;;;;;;;;;;80138;255;3031118;-29
2023/03/25 01:13:03;;;;;;;5.00;2.60;;;;;;;;;;80073;255;3027984;-29
2023/03/25 01:15:41;;;;;;;5.00;2.80;;;;;;;;;;80079;255;3027096;-29
2023/03/25 01:18:16;;;;;;;5.00;2.90;;;;;;;;;;80078;255;3031138;-29
2023/03/25 01:20:54;;;;;;;5.40;3.20;;;;;;;;;;80831;255;3011500;-29
2023/03/25 01:23:32;;;;;;;5.00;3.00;;;;;;;;;;80043;255;3031881;-29
2023/03/25 01:26:08;;;;;;;4.90;2.80;;;;;;;;;;80091;255;3028061;-29
2023/03/25 01:28:45;;;;;;;5.20;2.60;;;;;;;;;;80131;255;3027740;-29
2023/03/25 01:31:24;;;;;;;4.50;2.50;;;;;;;;;;80115;255;3030961;-29
2023/03/25 01:34:02;;;;;;;4.40;2.70;;;;;;;;;;80089;255;3031279;-29
2023/03/25 01:36:40;;;;;;;4.80;2.80;;;;;;;;;;80094;255;3028645;-29
2023/03/25 01:39:17;;;;;;;4.70;2.60;;;;;;;;;;80103;255;3027223;-29
2023/03/25 01:41:53;;;;;;;4.60;2.50;;;;;;;;;;80087;255;3030622;-29
2023/03/25 01:45:11;;;;;;;5.50;2.70;;;;;;;;;;80079;255;3031055;-29
2023/03/25 01:47:47;;;;;;;4.80;2.70;;;;;;;;;;80095;255;3028576;-29
2023/03/25 01:50:27;;;;;;;4.90;2.80;;;;;;;;;;80136;255;3030497;-29
2023/03/25 01:53:07;;;;;;;4.80;2.60;;;;;;;;;;80092;255;3030480;-29
2023/03/25 01:55:46;;;;;;;4.80;2.70;;;;;;;;;;80071;255;3031939;-29
2023/03/25 01:58:22;;;;;;;5.00;2.80;;;;;;;;;;80121;255;3028230;-29
2023/03/25 02:01:00;;;;;;;4.60;2.50;;;;;;;;;;80095;255;3027291;-29
2023/03/25 02:03:45;;;;;;;4.50;2.60;;;;;;;;;;80045;255;3030362;-29
2023/03/25 02:06:28;;;;;;;4.60;2.80;;;;;;;;;;80077;255;3032057;-29
2023/03/25 02:09:07;;;;;;;4.80;2.90;;;;;;;;;;80066;255;3028753;-29
2023/03/25 02:11:44;;;;;;;4.90;2.80;;;;;;;;;;80095;255;3027578;-29
2023/03/25 02:14:23;;;;;;;4.90;2.80;;;;;;;;;;80064;255;3031075;-29
2023/03/25 02:17:08;;;;;;;4.90;2.60;;;;;;;;;;80058;255;3031487;-29
2023/03/25 02:20:20;;;;;;;4.60;2.40;;;;;;;;;;80073;255;3028009;-29
2023/03/25 02:23:33;;;;;;;5.00;2.70;;;;;;;;;;80076;255;3027316;-29
2023/03/25 02:26:48;;;;;;;4.60;2.60;;;;;;;;;;80020;255;3036742;-30
2023/03/25 02:29:53;;;;;;;4.50;2.80;;;;;;;;;;80066;255;3032410;-30
2023/03/25 02:33:09;;;;;;;4.60;2.60;;;;;;;;;;80080;255;3028399;-30
2023/03/25 02:36:08;;;;;;;5.20;2.60;;;;;;;;;;80039;255;3028537;-30
2023/03/25 02:38:50;;;;;;;4.90;2.60;;;;;;;;;;80100;255;3030687;-30
2023/03/25 02:41:33;;;;;;;5.30;2.90;;;;;;;;;;80152;310;3031983;-30
2023/03/25 02:44:15;;;;;;;4.60;2.60;;;;;;;;;;80098;255;3027925;-30
2023/03/25 02:46:58;;;;;;;4.70;2.70;;;;;;;;;;80062;255;3033674;-30
2023/03/25 02:49:39;;;;;;;4.70;2.80;;;;;;;;;;80064;255;3031076;-30
2023/03/25 02:52:25;;;;;;;5.10;2.60;;;;;;;;;;80049;243;3031899;-30
2023/03/25 02:55:04;;;;;;;4.60;2.60;;;;;;;;;;80061;255;3028223;-30
2023/03/25 02:57:43;;;;;;;5.00;2.70;;;;;;;;;;80087;255;3027327;-30
2023/03/25 03:00:27;;;;;;;4.30;2.60;;;;;;;;;;80100;255;3030347;-30
2023/03/25 03:03:07;;;;;;;4.30;2.40;;;;;;;;;;80087;255;3032002;-30
2023/03/25 03:05:46;;;;;;;4.80;2.90;;;;;;;;;;80064;255;3028685;-30
2023/03/25 03:08:44;;;;;;;4.70;2.60;;;;;;;;;;80111;255;3027678;-30
2023/03/25 03:11:24;;;;;;;4.90;2.70;;;;;;;;;;80088;255;3031177;-30
2023/03/25 03:14:30;;;;;;;4.80;2.60;;;;;;;;;;80088;255;3031760;-30
2023/03/25 03:17:23;;;;;;;4.50;2.70;;;;;;;;;;80062;255;3028794;-30
2023/03/25 03:20:04;;;;;;;4.70;2.80;;;;;;;;;;80088;255;3027939;-30
2023/03/25 03:22:51;;;;;;;5.40;2.90;;;;;;;;;;80116;255;3031070;-30
2023/03/25 03:25:35;;;;;;;4.30;2.40;;;;;;;;;;80048;255;3031792;-30
2023/03/25 03:28:23;;;;;;;4.50;2.70;;;;;;;;;;80057;252;3028131;-30
2023/03/25 03:31:05;;;;;;;4.70;2.90;;;;;;;;;;80078;255;3027723;-30
2023/03/25 03:33:49;;;;;;;4.60;2.60;;;;;;;;;;80080;260;3031349;-30
2023/03/25 03:36:30;;;;;;;4.80;2.60;;;;;;;;;;80060;255;3032017;-30
2023/03/25 03:39:09;;;;;;;4.70;2.60;;;;;;;;;;80080;255;3028538;-30
2023/03/25 03:41:51;;;;;;;4.70;2.80;;;;;;;;;;80064;255;3027816;-30
2023/03/25 03:44:32;;;;;;;4.50;2.60;;;;;;;;;;80097;255;3030749;-30
2023/03/25 03:47:14;;;;;;;4.90;2.60;;;;;;;;;;80069;255;3032030;-30
2023/03/25 03:49:53;;;;;;;4.60;2.60;;;;;;;;;;80075;255;3028330;-30
2023/03/25 03:52:37;;;;;;;5.10;2.60;;;;;;;;;;80073;255;3027929;-30
2023/03/25 03:55:16;;;;;;;4.90;2.60;;;;;;;;;;80106;255;3031053;-30
2023/03/25 03:57:56;;;;;;;4.90;2.70;;;;;;;;;;80095;255;3031305;-30
2023/03/25 04:00:36;;;;;;;4.10;2.40;;;;;;;;;;80080;255;3028745;-30
2023/03/25 04:03:17;;;;;;;4.30;2.40;;;;;;;;;;80075;255;3027304;-30
2023/03/25 04:06:01;;;;;;;4.50;2.70;;;;;;;;;;80066;255;3030722;-30
2023/03/25 04:08:50;;;;;;;4.50;2.50;;;;;;;;;;80066;255;3038133;-30
2023/03/25 04:11:30;;;;;;;4.60;2.60;;;;;;;;;;80127;255;3028789;-30
2023/03/25 04:14:09;;;;;;;4.20;2.30;;;;;;;;;;80088;255;3028017;-30
2023/03/25 04:16:51;;;;;;;5.10;2.60;;;;;;;;;;80040;255;3031107;-30
2023/03/25 04:19:32;;;;;;;4.90;2.70;;;;;;;;;;80093;255;3031147;-30
2023/03/25 04:22:12;;;;;;;4.50;2.50;;;;;;;;;;80093;255;3028689;-30
2023/03/25 04:24:50;;;;;;;4.60;2.60;;;;;;;;;;80107;255;3027534;-30
2023/03/25 04:27:28;;;;;;;4.80;2.50;;;;;;;;;;80068;255;3031237;-30
2023/03/25 04:30:07;;;;;;;5.00;2.70;;;;;;;;;;80082;255;3031908;-30
2023/03/25 04:32:46;;;;;;;4.60;2.70;;;;;;;;;;80127;255;3028591;-30
2023/03/25 04:35:24;;;;;;;4.90;2.80;;;;;;;;;;80080;255;3027621;-30
2023/03/25 04:38:00;;;;;;;4.80;2.50;;;;;;;;;;80105;255;3030381;-30
2023/03/25 04:40:39;;;;;;;4.80;2.70;;;;;;;;;;80112;255;3031157;-30
2023/03/25 04:43:29;;;;;;;4.70;2.60;;;;;;;;;;80114;255;3027866;-30
2023/03/25 04:46:08;;;;;;;4.60;2.60;;;;;;;;;;80083;256;3027286;-30
2023/03/25 04:48:46;;;;;;;4.80;2.60;;;;;;;;;;80028;255;3030768;-30
2023/03/25 04:51:22;;;;;;;4.20;2.50;;;;;;;;;;80085;255;3031562;-30
2023/03/25 04:54:00;;;;;;;4.60;2.50;;;;;;;;;;80851;255;3011155;-30
2023/03/25 04:56:38;;;;;;;4.60;2.60;;;;;;;;;;80082;307;3028492;-29
2023/03/25 04:59:14;;;;;;;4.90;2.70;;;;;;;;;;80075;255;3027168;-29
2023/03/25 05:01:51;;;;;;;4.70;2.60;;;;;;;;;;80078;255;3030696;-29
2023/03/25 05:04:26;;;;;;;4.90;2.60;;;;;;;;;;80099;255;3032037;-29
2023/03/25 05:07:04;;;;;;;4.80;2.50;;;;;;;;;;80854;255;3012803;-29
2023/03/25 05:09:41;;;;;;;4.40;2.50;;;;;;;;;;80060;244;3028563;-30
2023/03/25 05:12:20;;;;;;;4.70;2.70;;;;;;;;;;80035;267;3027875;-30
2023/03/25 05:14:59;;;;;;;4.60;2.60;;;;;;;;;;80074;255;3029391;-30
2023/03/25 05:17:37;;;;;;;4.70;2.50;;;;;;;;;;80118;259;3032127;-30
2023/03/25 05:20:16;;;;;;;4.40;2.50;;;;;;;;;;80074;255;3035961;-30
2023/03/25 05:22:56;;;;;;;4.60;2.60;;;;;;;;;;80115;255;3027146;-30
2023/03/25 05:25:36;;;;;;;4.80;2.60;;;;;;;;;;80087;255;3031300;-30
2023/03/25 05:28:16;;;;;;;4.50;2.50;;;;;;;;;;80113;255;3031847;-30
2023/03/25 05:30:56;;;;;;;4.40;2.40;;;;;;;;;;80120;255;3028128;-30
2023/03/25 05:33:41;;;;;;;4.60;2.60;;;;;;;;;;80085;255;3027087;-30
2023/03/25 05:36:18;;;;;;;4.40;2.30;;;;;;;;;;80062;244;3031008;-30
2023/03/25 05:38:57;;;;;;;4.50;2.60;;;;;;;;;;80042;255;3031647;-30
2023/03/25 05:41:38;;;;;;;4.30;2.40;;;;;;;;;;80114;255;3028192;-30
2023/03/25 05:44:17;;;;;;;5.00;2.70;;;;;;;;;;80087;255;3027161;-30
2023/03/25 05:46:55;;;;;;;4.90;2.60;;;;;;;;;;80121;255;3033825;-30
2023/03/25 05:49:34;;;;;;;4.30;2.30;;;;;;;;;;80071;255;3033974;-30
2023/03/25 05:52:10;;;;;;;4.50;2.60;;;;;;;;;;80071;255;3028375;-30
2023/03/25 05:54:49;;;;;;;4.90;2.80;;;;;;;;;;80132;255;3027924;-30
2023/03/25 05:57:28;;;;;;;4.60;2.80;;;;;;;;;;80119;255;3032198;-30
2023/03/25 06:00:07;;;;;;;4.80;2.50;;;;;;;;;;80043;255;3031666;-30
2023/03/25 06:02:49;;;;;;;4.80;2.50;;;;;;;;;;80117;255;3028299;-30
2023/03/25 06:05:25;;;;;;;4.80;2.60;;;;;;;;;;80074;255;3028030;-30
2023/03/25 06:08:05;;;;;;;5.10;2.60;;;;;;;;;;80098;255;3030934;-30
2023/03/25 06:10:47;;;;;;;4.50;2.40;;;;;;;;;;80058;255;3032216;-30
2023/03/25 06:13:27;;;;;;;4.70;2.50;;;;;;;;;;80073;255;3027864;-30
2023/03/25 06:16:08;;;;;;;5.00;2.70;;;;;;;;;;80074;255;3027938;-30
2023/03/25 06:18:55;;;;;;;4.70;2.30;;;;;;;;;;80070;255;3029962;-30
2023/03/25 06:21:35;;;;;;;4.70;2.70;;;;;;;;;;80075;255;3031028;-30
2023/03/25 06:24:11;;;;;;;4.40;2.60;;;;;;;;;;80066;255;3028057;-30
2023/03/25 06:26:48;;;;;;;4.60;2.50;;;;;;;;;;80059;255;3027022;-30
2023/03/25 06:29:27;;;;;;;4.60;2.80;;;;;;;;;;80082;255;3031419;-30
2023/03/25 06:32:05;;;;;;;4.80;2.50;;;;;;;;;;80076;255;3037971;-31
2023/03/25 06:34:41;;;;;;;4.60;2.50;;;;;;;;;;80092;255;3028060;-31
2023/03/25 06:37:17;;;;;;;5.00;2.60;;;;;;;;;;79662;256;3027142;-31
2023/03/25 06:39:58;;;;;;;4.80;2.80;;;;;;;;;;80039;255;3030869;-31
2023/03/25 06:42:34;;;;;;;5.20;2.80;;;;;;;;;;80092;255;3031708;-31
2023/03/25 06:45:12;;;;;;;5.20;3.10;;;;;;;;;;80096;255;3028312;-31
2023/03/25 06:47:49;;;;;;;4.50;2.50;;;;;;;;;;80070;255;3027826;-31
2023/03/25 06:50:26;;;;;;;5.00;2.70;;;;;;;;;;80081;255;3030809;-31
2023/03/25 06:53:04;;;;;;;4.30;2.50;;;;;;;;;;80115;255;3031433;-31
2023/03/25 06:55:41;;;;;;;4.70;2.60;;;;;;;;;;80121;255;3028196;-31
2023/03/25 06:58:18;;;;;;;4.70;2.80;;;;;;;;;;80098;255;3027345;-31
2023/03/25 07:01:02;;;;;;;5.20;2.50;;;;;;;;;;80053;255;3030797;-31
2023/03/25 07:03:42;;;;;;;4.80;2.70;;;;;;;;;;80069;255;3032060;-31
2023/03/25 07:06:23;;;;;;;5.60;2.90;;;;;;;;;;80131;255;3028862;-31
2023/03/25 07:08:59;;;;;;;4.90;2.80;;;;;;;;;;80093;255;3027895;-31
2023/03/25 07:11:39;;;;;;;4.60;2.60;;;;;;;;;;80087;255;3031249;-31
2023/03/25 07:14:17;;;;;;;4.10;2.50;;;;;;;;;;80057;255;3031186;-31
2023/03/25 07:16:54;;;;;;;4.80;2.70;;;;;;;;;;80069;255;3027887;-31
2023/03/25 07:19:31;;;;;;;4.70;2.80;;;;;;;;;;80096;255;3027648;-31
2023/03/25 07:22:08;;;;;;;4.80;2.50;;;;;;;;;;80086;255;3031033;-31
2023/03/25 07:24:50;;;;;;;5.40;2.70;;;;;;;;;;80079;255;3032533;-31
2023/03/25 07:27:27;;;;;;;5.00;2.50;;;;;;;;;;80092;255;3028096;-31
2023/03/25 07:30:03;;;;;;;5.00;2.80;;;;;;;;;;80108;255;3027242;-31
2023/03/25 07:32:38;;;;;;;4.50;2.60;;;;;;;;;;80075;256;3031384;-31
2023/03/25 07:35:15;;;;;;;4.20;2.30;;;;;;;;;;80834;255;3012714;-31
2023/03/25 07:37:52;;;;;;;4.50;2.40;;;;;;;;;;80828;255;3011950;-31
2023/03/25 07:40:29;;;;;;;5.30;2.70;;;;;;;;;;80091;255;3031376;-31
2023/03/25 07:43:08;;;;;;;5.00;2.70;;;;;;;;;;80088;255;3028927;-32
2023/03/25 07:45:44;;;;;;;5.00;3.00;;;;;;;;;;80116;255;3027865;-32
2023/03/25 07:48:21;;;;;;;5.60;2.80;;;;;;;;;;80088;255;3030670;-32
2023/03/25 07:50:59;;;;;;;4.90;2.60;;;;;;;;;;80092;255;3031794;-32
2023/03/25 07:53:37;;;;;;;6.00;2.80;;;;;;;;;;80079;255;3028530;-32
2023/03/25 07:56:14;;;;;;;4.90;2.70;;;;;;;;;;80100;255;3030453;-32
2023/03/25 07:58:51;;;;;;;4.70;2.70;;;;;;;;;;80136;255;3030913;-32
2023/03/25 08:01:26;;;;;;;4.60;2.60;;;;;;;;;;80099;255;3031065;-32
2023/03/25 08:04:02;;;;;;;4.60;2.70;;;;;;;;;;80091;255;3030455;-32
2023/03/25 08:06:40;;;;;;;4.50;2.70;;;;;;;;;;80090;255;3029695;-32
2023/03/25 08:09:19;;;;;;;4.50;2.60;;;;;;;;;;80131;255;3031447;-31
2023/03/25 08:11:57;;;;;;;5.70;2.80;;;;;;;;;;80105;307;3031597;-31
2023/03/25 08:14:33;;;;;;;4.60;2.80;;;;;;;;;;80125;255;3027918;-31
2023/03/25 08:17:10;;;;;;;6.00;2.90;;;;;;;;;;80141;255;3027561;-31
2023/03/25 08:19:47;;;;;;;5.60;2.90;;;;;;;;;;80063;255;3031139;-31
2023/03/25 08:22:26;;;;;;;5.90;3.10;;;;;;;;;;80821;267;3011665;-31
2023/03/25 08:25:07;;;;;;;5.80;2.80;;;;;;;;;;80142;255;3032225;-31
2023/03/25 08:27:43;;;;;;;5.50;2.90;;;;;;;;;;80091;255;3028729;-31
2023/03/25 08:30:19;;;;;;;5.60;2.80;;;;;;;;;;80059;255;3028094;-32
2023/03/25 08:32:54;;;;;;;5.80;2.80;;;;;;;;;;80318;254;3030690;-33
2023/03/25 08:35:29;;;;;;;5.90;2.80;;;;;;;;;;80874;254;3012704;-33
2023/03/25 08:38:07;;;;;;;5.40;2.50;;;;;;;;;;80916;254;3011448;-34
2023/03/25 08:40:44;;;;;;;4.90;2.70;;;;;;;;;;80181;254;3031567;-34
2023/03/25 08:43:19;;;;;;;4.90;2.80;;;;;;;;;;80173;254;3028664;-33
2023/03/25 08:45:55;;;;;;;4.80;2.60;;;;;;;;;;80168;254;3034897;-33
2023/03/25 08:48:33;;;;;;;5.10;2.60;;;;;;;;;;80888;254;3011572;-34
2023/03/25 08:51:09;;;;;;;4.90;2.80;;;;;;;;;;80221;254;3030432;-34
2023/03/25 08:53:44;;;;;;;5.10;2.80;;;;;;;;;;80162;254;3031131;-34
2023/03/25 08:56:20;;;;;;;6.10;2.70;;;;;;;;;;80891;254;3011246;-32
2023/03/25 08:58:55;;;;;;;5.30;2.90;;;;;;;;;;80938;255;3011838;-33
2023/03/25 09:01:35;;;;;;;4.90;2.80;;;;;;;;;;80906;254;3011060;-34
2023/03/25 09:04:16;;;;;;;6.00;2.70;;;;;;;;;;80111;254;3028181;-33
2023/03/25 09:06:55;;;;;;;5.10;2.70;;;;;;;;;;80145;254;3027113;-32
2023/03/25 09:09:48;;;;;;;5.10;2.70;;;;;;;;;;80131;254;3031249;-32
2023/03/25 09:12:23;;;;;;;5.30;2.70;;;;;;;;;;80110;255;3032028;-31
2023/03/25 09:15:01;;;;;;;5.30;2.60;;;;;;;;;;80123;254;3028622;-33
2023/03/25 09:17:36;;;;;;;5.50;2.50;;;;;;;;;;80147;254;3027526;-31
2023/03/25 09:20:13;;;;;;;4.60;2.60;;;;;;;;;;80153;254;3030799;-32
2023/03/25 09:22:51;;;;;;;5.20;2.60;;;;;;;;;;80140;255;3031905;-32
2023/03/25 09:25:28;;;;;;;4.70;2.40;;;;;;;;;;80136;254;3028472;-32
2023/03/25 09:28:08;;;;;;;4.30;2.40;;;;;;;;;;80193;254;3027611;-32
2023/03/25 09:30:47;;;;;;;5.20;2.60;;;;;;;;;;80113;254;3031021;-32
2023/03/25 09:33:26;;;;;;;4.70;2.50;;;;;;;;;;80187;254;3032006;-32
2023/03/25 09:36:03;;;;;;;5.30;2.30;;;;;;;;;;80142;254;3028795;-32
2023/03/25 09:38:39;;;;;;;4.90;2.30;;;;;;;;;;80183;254;3027601;-32
2023/03/25 09:41:35;;;;;;;5.40;2.40;;;;;;;;;;80908;254;3011946;-32
2023/03/25 09:44:22;;;;;;;4.80;2.60;;;;;;;;;;80191;254;3030792;-31
2023/03/25 09:47:05;;;;;;;4.40;2.30;;;;;;;;;;80085;254;3031770;-31
2023/03/25 09:49:45;;;;;;;4.90;2.40;;;;;;;;;;80177;254;3028196;-31
2023/03/25 09:52:29;;;;;;;4.20;2.20;;;;;;;;;;80191;254;3027799;-31
2023/03/25 09:55:10;;;;;;;5.10;2.40;;;;;;;;;;80144;255;3031084;-31
2023/03/25 09:57:52;;;;;;;4.30;2.20;;;;;;;;;;80183;254;3037369;-31
2023/03/25 10:00:34;;;;;;;5.30;2.80;;;;;;;;;;80113;255;3028348;-33
2023/03/25 10:03:21;;;;;;;4.50;2.30;;;;;;;;;;80136;253;3027351;-32
2023/03/25 10:06:19;;;;;;;5.30;2.40;;;;;;;;;;80148;253;3030929;-33
2023/03/25 10:09:31;;;;;;;4.90;2.40;;;;;;;;;;80104;255;3031294;-33
2023/03/25 10:12:22;;;;;;;5.60;2.30;;;;;;;;;;80175;254;3028176;-33
2023/03/25 10:15:13;;;;;;;4.90;2.30;;;;;;;;;;80167;254;3027531;-33
2023/03/25 10:18:05;;;;;;;4.40;2.30;;;;;;;;;;80080;255;3030766;-33
2023/03/25 10:20:54;;;;;;;5.60;2.50;;;;;;;;;;80080;255;3031704;-32
2023/03/25 10:23:37;;;;;;;4.60;2.30;;;;;;;;;;80070;255;3030805;-32
2023/03/25 10:26:20;;;;;;;4.50;2.30;;;;;;;;;;80110;255;3027332;-33
2023/03/25 10:29:01;;;;;;;5.10;2.40;;;;;;;;;;80095;256;3031100;-33
2023/03/25 10:31:44;;;;;;;4.70;2.30;;;;;;;;;;80112;255;3032102;-32
2023/03/25 10:34:23;;;;;;;4.50;2.30;;;;;;;;;;80079;255;3028071;-33
2023/03/25 10:37:04;;;;;;;4.30;2.20;;;;;;;;;;80068;255;3027701;-33
2023/03/25 10:39:44;;;;;;;4.20;2.20;;;;;;;;;;80143;255;3029759;-33
2023/03/25 10:42:29;;;;;;;4.50;2.20;;;;;;;;;;80118;255;3031200;-32
2023/03/25 10:45:08;;;;;;;4.10;2.30;;;;;;;;;;80134;254;3028456;-33
2023/03/25 10:47:49;;;;;;;4.40;2.10;;;;;;;;;;80060;271;3027644;-32
2023/03/25 10:50:26;;;;;;;4.10;2.10;;;;;;;;;;80173;254;3030323;-33
2023/03/25 10:53:04;;;;;;;4.30;2.20;;;;;;;;;;80086;255;3031838;-33
2023/03/25 10:55:44;;;;;;;4.20;2.10;;;;;;;;;;80068;255;3028690;-32
2023/03/25 10:58:23;;;;;;;4.10;2.10;;;;;;;;;;80077;255;3026975;-33
2023/03/25 11:01:01;;;;;;;4.60;2.10;;;;;;;;;;80079;255;3031131;-33
2023/03/25 11:03:38;;;;;;;3.90;2.00;;;;;;;;;;80070;255;3031631;-33
2023/03/25 11:06:28;;;;;;;5.10;2.20;;;;;;;;;;80150;254;3029035;-33
2023/03/25 11:09:22;;;;;;;4.10;1.80;;;;;;;;;;80055;254;3034042;-33
2023/03/25 11:12:05;;;;;;;4.30;1.90;;;;;;;;;;80147;254;3030580;-33
2023/03/25 11:14:42;;;;;;;4.30;2.10;;;;;;;;;;80128;255;3031418;-33
2023/03/25 11:17:24;;;;;;;3.90;1.80;;;;;;;;;;80076;254;3028666;-33
2023/03/25 11:20:09;;;;;;;4.40;2.10;;;;;;;;;;80070;255;3027804;-33
2023/03/25 11:22:50;;;;;;;4.00;2.00;;;;;;;;;;80075;245;3030742;-33
2023/03/25 11:25:32;;;;;;;5.00;2.10;;;;;;;;;;80066;255;3031409;-33
2023/03/25 11:28:17;;;;;;;4.40;1.90;;;;;;;;;;80044;255;3028904;-33
2023/03/25 11:31:14;;;;;;;4.90;2.20;;;;;;;;;;80080;270;3027844;-33
2023/03/25 11:34:18;;;;;;;4.50;2.00;;;;;;;;;;80122;255;3031039;-33
2023/03/25 11:36:56;;;;;;;;;;;;;;;;;;80091;254;3031985;-32
2023/03/25 11:39:38;;;;;;;6.60;2.70;;;;;;;;;;80074;255;3028522;-33
2023/03/25 11:42:35;;;;;;;5.40;2.60;;;;;;;;;;80147;254;3027933;-33
2023/03/25 11:45:23;;;;;;;5.40;2.10;;;;;;;;;;80050;255;3030558;-33
2023/03/25 11:48:03;;;;;;;4.70;2.10;;;;;;;;;;80099;255;3031341;-33
2023/03/25 11:50:46;;;;;;;6.10;2.10;;;;;;;;;;80064;255;3028436;-32
2023/03/25 11:53:29;;;;;;;5.40;2.20;;;;;;;;;;80122;254;3027962;-32
2023/03/25 11:56:12;;;;;;;7.00;2.10;;;;;;;;;;80062;255;3031175;-32
2023/03/25 11:58:50;;;;;;;7.40;2.70;;;;;;;;;;80006;255;3031379;-32
2023/03/25 12:01:38;;;;;;;4.30;2.10;;;;;;;;;;80170;248;3028887;-33
2023/03/25 12:04:21;;;;;;;4.50;1.80;;;;;;;;;;80147;255;3017925;-34
2023/03/25 12:07:07;;;;;;;5.40;2.10;;;;;;;;;;80130;255;3028450;-33
2023/03/25 12:09:57;;;;;;;4.90;2.10;;;;;;;;;;80076;256;3027973;-33
2023/03/25 12:12:44;;;;;;;5.60;2.20;;;;;;;;;;80062;254;3031062;-33
2023/03/25 12:15:32;;;;;;;5.30;2.20;;;;;;;;;;80157;254;3031757;-32
2023/03/25 12:18:30;;;;;;;5.50;2.20;;;;;;;;;;80102;255;3028158;-32
2023/03/25 12:21:12;;;;;;;5.50;1.90;;;;;;;;;;80067;255;3034187;-34
2023/03/25 12:24:01;;;;;;;4.90;2.00;;;;;;;;;;80056;255;3030743;-33
2023/03/25 12:26:47;;;;;;;5.20;2.00;;;;;;;;;;80122;254;3031619;-33
2023/03/25 12:29:40;;;;;;;5.50;1.90;;;;;;;;;;80051;255;3027990;-32
2023/03/25 12:32:28;;;;;;;5.00;1.90;;;;;;;;;;80142;255;3027351;-32
2023/03/25 12:35:21;;;;;;;4.30;1.80;;;;;;;;;;80038;255;3030844;-34
2023/03/25 12:38:18;;;;;;;5.60;2.10;;;;;;;;;;80063;255;3031392;-33
2023/03/25 12:41:20;;;;;;;4.50;1.90;;;;;;;;;;80052;255;3027903;-32
2023/03/25 12:44:05;;;;;;;4.30;1.80;;;;;;;;;;80087;255;3027277;-32
2023/03/25 12:46:59;;;;;;;;;;;;;;;;;;80074;255;3031340;-32
2023/03/25 12:50:04;;;;;;;4.40;1.70;;;;;;;;;;80013;255;3031883;-32
2023/03/25 12:52:51;;;;;;;4.90;2.10;;;;;;;;;;79992;256;3028727;-33
2023/03/25 12:55:53;;;;;;;5.00;2.20;;;;;;;;;;79978;255;3027206;-34
2023/03/25 12:58:54;;;;;;;5.50;2.10;;;;;;;;;;80084;255;3030721;-32
2023/03/25 13:01:45;;;;;;;5.00;2.10;;;;;;;;;;80040;255;3032462;-33
2023/03/25 13:04:40;;;;;;;4.30;1.60;;;;;;;;;;80027;256;3030176;-32
2023/03/25 13:07:20;;;;;;;5.40;2.20;;;;;;;;;;80030;256;3027649;-33
2023/03/25 13:10:05;;;;;;;4.50;1.80;;;;;;;;;;79998;256;3031334;-33
2023/03/25 13:12:46;;;;;;;3.90;1.50;;;;;;;;;;80013;310;3032027;-32
2023/03/25 13:15:25;;;;;;;4.30;1.60;;;;;;;;;;80069;255;3028342;-34
2023/03/25 13:18:07;;;;;;;4.20;1.70;;;;;;;;;;79984;256;3027661;-34
2023/03/25 13:20:48;;;;;;;3.90;1.70;;;;;;;;;;79971;256;3031099;-34
2023/03/25 13:23:29;;;;;;;4.70;1.60;;;;;;;;;;80011;244;3031789;-34
2023/03/25 13:26:10;;;;;;;4.00;1.80;;;;;;;;;;80061;252;3028232;-34
2023/03/25 13:28:49;;;;;;;4.40;1.70;;;;;;;;;;80028;256;3027137;-34
2023/03/25 13:31:29;;;;;;;3.60;1.50;;;;;;;;;;80160;255;3030670;-33
2023/03/25 13:34:28;;;;;;;4.50;1.90;;;;;;;;;;80154;255;3032220;-32
2023/03/25 13:37:16;;;;;;;4.60;1.80;;;;;;;;;;80072;245;3028374;-32
2023/03/25 13:40:12;;;;;;;4.50;1.80;;;;;;;;;;80052;256;3027886;-32
2023/03/25 13:42:58;;;;;;;4.70;1.90;;;;;;;;;;80013;256;3036745;-32
2023/03/25 13:45:41;;;;;;;4.00;1.90;;;;;;;;;;80049;255;3031113;-34
2023/03/25 13:48:22;;;;;;;4.10;1.60;;;;;;;;;;80027;255;3028008;-33
2023/03/25 13:51:04;;;;;;;4.50;1.80;;;;;;;;;;80015;255;3027421;-34
2023/03/25 13:53:45;;;;;;;4.50;1.90;;;;;;;;;;80038;256;3031531;-34
2023/03/25 13:57:08;;;;;;;4.40;2.00;;;;;;;;;;80040;255;3031479;-34
2023/03/25 14:00:13;;;;;;;4.60;2.10;;;;;;;;;;80063;256;3027854;-34
2023/03/25 14:03:15;;;;;;;;;;;;;;;;;;80018;256;3027796;-32
2023/03/25 14:06:42;;;;;;;4.20;2.10;;;;;;;;;;80056;256;3030482;-32
2023/03/25 14:09:59;;;;;;;4.70;2.10;;;;;;;;;;80002;256;3033890;-32
2023/03/25 14:12:44;;;;;;;4.40;2.00;;;;;;;;;;80031;255;3028845;-32
2023/03/25 14:15:28;;;;;;;4.70;2.10;;;;;;;;;;80058;255;3027976;-32
2023/03/25 14:18:16;;;;;;;4.20;2.20;;;;;;;;;;80022;256;3030884;-33
2023/03/25 14:21:00;;;;;;;4.40;2.00;;;;;;;;;;80083;256;3032623;-34
2023/03/25 14:23:40;;;;;;;5.30;2.00;;;;;;;;;;79999;255;3028448;-34
2023/03/25 14:26:24;;;;;;;5.00;2.10;;;;;;;;;;80038;255;3027260;-34
2023/03/25 14:29:07;;;;;;;5.30;2.10;;;;;;;;;;80025;247;3031092;-32
2023/03/25 14:32:06;;;;;;;5.50;2.20;;;;;;;;;;80020;255;3031965;-32
2023/03/25 14:34:49;;;;;;;4.10;2.10;;;;;;;;;;79987;256;3027942;-34
2023/03/25 14:37:32;;;;;;;4.50;2.00;;;;;;;;;;79606;256;3027852;-34
2023/03/25 14:40:51;;;;;;;4.90;2.00;;;;;;;;;;80047;255;3031229;-34
2023/03/25 14:43:45;;;;;;;4.70;2.00;;;;;;;;;;79959;252;3032374;-32
2023/03/25 14:46:24;;;;;;;4.90;2.00;;;;;;;;;;80054;255;3028256;-31
2023/03/25 14:49:21;;;;;;;4.70;1.90;;;;;;;;;;80038;255;3027370;-32
2023/03/25 14:51:59;;;;;;;5.90;2.50;;;;;;;;;;80012;255;3031292;-32
2023/03/25 14:54:38;;;;;;;5.20;2.20;;;;;;;;;;80034;255;3032716;-32
2023/03/25 14:57:21;;;;;;;5.00;2.10;;;;;;;;;;80036;255;3028281;-34
2023/03/25 15:00:08;;;;;;;5.20;2.20;;;;;;;;;;80042;255;3027652;-33
2023/03/25 15:02:45;;;;;;;4.60;2.10;;;;;;;;;;80027;255;3030594;-33
2023/03/25 15:05:25;;;;;;;4.10;2.00;;;;;;;;;;80051;255;3031295;-33
2023/03/25 15:08:13;;;;;;;4.50;1.80;;;;;;;;;;80107;255;3028685;-32
2023/03/25 15:11:02;;;;;;;4.20;1.70;;;;;;;;;;80091;256;3027396;-31
2023/03/25 15:13:40;;;;;;;4.30;1.90;;;;;;;;;;80027;255;3031893;-31
2023/03/25 15:16:34;;;;;;;4.30;1.40;;;;;;;;;;80061;255;3031627;-32
2023/03/25 15:19:12;;;;;;;3.50;1.40;;;;;;;;;;80062;255;3028203;-31
2023/03/25 15:22:20;;;;;;;3.80;1.40;;;;;;;;;;80053;255;3027133;-31
2023/03/25 15:24:59;;;;;;;4.40;1.50;;;;;;;;;;80045;255;3031384;-30
2023/03/25 15:28:13;;;;;;;5.00;1.60;;;;;;;;;;80092;255;3031481;-30
2023/03/25 15:31:14;;;;;;;4.40;1.90;;;;;;;;;;80082;255;3028550;-30
2023/03/25 15:34:12;;;;;;;5.20;1.90;;;;;;;;;;80062;255;3027713;-30
2023/03/25 15:37:15;;;;;;;5.80;2.30;;;;;;;;;;80055;255;3029793;-30
2023/03/25 15:40:07;;;;;;;5.00;2.40;;;;;;;;;;80083;255;3031872;-30
2023/03/25 15:43:31;;;;;;;5.60;2.40;;;;;;;;;;80061;256;3028017;-30
2023/03/25 15:46:43;;;;;;;6.70;2.80;;;;;;;;;;80054;255;3033506;-30
2023/03/25 15:49:53;;;;;;;5.60;2.30;;;;;;;;;;79860;255;3031891;-30
2023/03/25 15:53:03;;;;;;;6.60;3.20;;;;;;;;;;80065;255;3032459;-30
2023/03/25 15:55:41;;;;;;;7.60;4.80;;;;;;;;;;80066;255;3029340;-31
2023/03/25 15:58:26;;;;;;;11.30;10.10;;;;;;;;;;80069;255;3027689;-31
2023/03/25 16:01:03;;;;;;;;;;;;;;;;;;80136;255;3031299;-31
2023/03/25 16:03:39;;;;;;;12.30;9.80;;;;;;;;;;80074;255;3032020;-30
2023/03/25 16:06:19;;;;;;;11.40;9.40;;;;;;;;;;80012;255;3028333;-30